createdAt,value
2022-08-20T00:00:37.977Z,4.50
2022-08-20T00:03:10.761Z,4.90
2022-08-20T00:05:41.016Z,5.97
2022-08-20T00:08:08.713Z,5.03
2022-08-20T00:10:36.998Z,4.97
2022-08-20T00:13:05.659Z,5.20
2022-08-20T00:15:34.476Z,5.10
2022-08-20T00:18:01.900Z,4.90
2022-08-20T00:20:32.360Z,5.30
2022-08-20T00:22:59.010Z,4.57
2022-08-20T00:25:28.535Z,4.30
2022-08-20T00:27:56.716Z,4.73
2022-08-20T00:30:24.223Z,4.77
2022-08-20T00:32:54.923Z,4.60
2022-08-20T00:35:24.205Z,5.13
2022-08-20T00:37:52.211Z,5.07
2022-08-20T00:40:24.104Z,4.17
2022-08-20T00:42:53.810Z,5.90
2022-08-20T00:45:20.938Z,4.90
2022-08-20T00:47:51.614Z,4.73
2022-08-20T00:50:22.344Z,4.93
2022-08-20T00:52:51.097Z,4.60
2022-08-20T00:55:20.472Z,4.80
2022-08-20T00:58:01.057Z,4.97
2022-08-20T01:00:33.325Z,5.30
2022-08-20T01:03:00.658Z,5.10
2022-08-20T01:05:29.610Z,5.00
2022-08-20T01:07:57.149Z,4.83
2022-08-20T01:10:27.825Z,5.20
2022-08-20T01:12:59.185Z,5.57
2022-08-20T01:15:31.175Z,5.20
2022-08-20T01:17:59.598Z,4.97
2022-08-20T01:20:30.836Z,5.50
2022-08-20T01:23:27.289Z,5.13
2022-08-20T01:26:14.206Z,5.50
2022-08-20T01:28:43.685Z,4.83
2022-08-20T01:31:13.316Z,5.13
2022-08-20T01:33:39.907Z,4.87
2022-08-20T01:36:10.381Z,5.17
2022-08-20T01:38:39.824Z,5.33
2022-08-20T01:41:28.776Z,4.77
2022-08-20T01:43:58.375Z,5.07
2022-08-20T01:46:29.811Z,5.50
2022-08-20T01:48:58.039Z,5.60
2022-08-20T01:51:27.698Z,5.17
2022-08-20T01:53:56.637Z,5.00
2022-08-20T01:56:29.216Z,5.77
2022-08-20T01:58:58.966Z,4.93
2022-08-20T02:01:34.609Z,5.07
2022-08-20T02:04:15.229Z,4.73
2022-08-20T02:06:56.734Z,4.97
2022-08-20T02:09:26.309Z,5.73
2022-08-20T02:11:53.350Z,6.30
2022-08-20T02:14:20.307Z,5.13
2022-08-20T02:16:54.559Z,5.43
2022-08-20T02:19:37.115Z,5.00
2022-08-20T02:22:09.850Z,5.43
2022-08-20T02:24:36.394Z,5.80
2022-08-20T02:27:02.890Z,5.50
2022-08-20T02:29:29.807Z,4.97
2022-08-20T02:32:32.108Z,5.67
2022-08-20T02:34:43.289Z,5.67
2022-08-20T02:37:10.345Z,5.47
2022-08-20T02:39:36.902Z,5.97
2022-08-20T02:42:04.558Z,5.47
2022-08-20T02:44:31.258Z,5.80
2022-08-20T02:46:58.576Z,6.03
2022-08-20T02:49:25.162Z,5.83
2022-08-20T02:51:52.169Z,5.70
2022-08-20T02:54:18.836Z,6.00
2022-08-20T02:56:45.318Z,5.43
2022-08-20T02:59:12.588Z,5.60
2022-08-20T03:01:46.535Z,5.87
2022-08-20T03:04:26.612Z,5.70
2022-08-20T03:06:53.063Z,5.87
2022-08-20T03:09:19.563Z,6.33
2022-08-20T03:11:46.145Z,5.43
2022-08-20T03:14:12.809Z,5.73
2022-08-20T03:16:39.281Z,5.90
2022-08-20T03:19:05.979Z,6.37
2022-08-20T03:21:32.455Z,6.17
2022-08-20T03:23:58.964Z,5.13
2022-08-20T03:26:25.497Z,6.13
2022-08-20T03:28:52.037Z,6.57
2022-08-20T03:31:19.000Z,5.40
2022-08-20T03:33:53.498Z,5.97
2022-08-20T03:36:27.736Z,5.77
2022-08-20T03:39:06.737Z,6.47
2022-08-20T03:41:33.402Z,7.03
2022-08-20T03:43:59.983Z,6.20
2022-08-20T03:46:26.627Z,6.93
2022-08-20T03:48:59.968Z,6.00
2022-08-20T03:51:29.319Z,6.70
2022-08-20T03:53:55.956Z,6.13
2022-08-20T03:56:22.642Z,6.30
2022-08-20T03:58:49.322Z,6.23
2022-08-20T04:01:45.335Z,6.47
2022-08-20T04:04:02.799Z,5.90
2022-08-20T04:06:30.460Z,6.23
2022-08-20T04:08:58.499Z,6.80
2022-08-20T04:11:25.233Z,5.83
2022-08-20T04:13:51.863Z,6.67
2022-08-20T04:16:19.340Z,6.50
2022-08-20T04:19:01.601Z,6.63
2022-08-20T04:21:33.646Z,7.27
2022-08-20T04:24:01.240Z,6.60
2022-08-20T04:26:27.905Z,6.80
2022-08-20T04:28:55.778Z,6.30
2022-08-20T04:31:32.607Z,6.70
2022-08-20T04:34:03.498Z,6.67
2022-08-20T04:36:30.231Z,6.43
2022-08-20T04:38:57.303Z,6.37
2022-08-20T04:41:24.315Z,6.73
2022-08-20T04:43:54.784Z,6.03
2022-08-20T04:46:23.604Z,6.70
2022-08-20T04:48:50.633Z,6.47
2022-08-20T04:51:18.673Z,6.50
2022-08-20T04:53:52.077Z,7.17
2022-08-20T04:56:24.044Z,8.40
2022-08-20T04:58:52.565Z,6.63
2022-08-20T05:01:19.149Z,6.43
2022-08-20T05:03:47.962Z,6.77
2022-08-20T05:06:16.084Z,6.27
2022-08-20T05:08:42.666Z,7.50
2022-08-20T05:11:34.183Z,6.97
2022-08-20T05:13:56.766Z,7.17
2022-08-20T05:16:24.526Z,7.40
2022-08-20T05:18:52.322Z,7.00
2022-08-20T05:21:19.327Z,6.60
2022-08-20T05:23:45.922Z,6.63
2022-08-20T05:26:13.078Z,6.90
2022-08-20T05:28:57.185Z,7.00
2022-08-20T05:31:32.000Z,6.50
2022-08-20T05:34:11.401Z,6.90
2022-08-20T05:36:40.500Z,6.60
2022-08-20T05:39:08.758Z,6.47
2022-08-20T05:41:36.308Z,6.90
2022-08-20T05:44:03.146Z,6.90
2022-08-20T05:46:31.483Z,6.63
2022-08-20T05:48:59.394Z,6.67
2022-08-20T05:51:26.771Z,7.23
2022-08-20T05:53:53.448Z,7.53
2022-08-20T05:56:19.908Z,7.17
2022-08-20T05:58:53.448Z,6.90
2022-08-20T06:01:20.026Z,6.40
2022-08-20T06:04:05.354Z,7.33
2022-08-20T06:06:46.279Z,7.00
2022-08-20T06:09:15.793Z,7.30
2022-08-20T06:11:42.449Z,6.67
2022-08-20T06:14:09.310Z,6.53
2022-08-20T06:16:37.320Z,6.37
2022-08-20T06:19:11.296Z,7.07
2022-08-20T06:21:38.663Z,7.43
2022-08-20T06:24:05.615Z,6.97
2022-08-20T06:26:34.435Z,7.43
2022-08-20T06:29:02.534Z,7.10
2022-08-20T06:31:29.136Z,6.90
2022-08-20T06:33:55.716Z,7.00
2022-08-20T06:36:22.486Z,6.80
2022-08-20T06:38:49.409Z,6.50
2022-08-20T06:41:17.297Z,6.63
2022-08-20T06:43:43.817Z,7.27
2022-08-20T06:46:10.894Z,7.23
2022-08-20T06:48:38.222Z,7.03
2022-08-20T06:51:06.624Z,7.47
2022-08-20T06:53:33.278Z,6.97
2022-08-20T06:55:59.874Z,7.37
2022-08-20T06:58:35.630Z,7.53
2022-08-20T07:01:09.721Z,7.53
2022-08-20T07:03:38.607Z,7.00
2022-08-20T07:06:05.333Z,7.10
2022-08-20T07:08:31.976Z,6.60
2022-08-20T07:10:59.682Z,6.80
2022-08-20T07:13:26.720Z,7.30
2022-08-20T07:15:54.178Z,7.37
2022-08-20T07:18:27.885Z,7.33
2022-08-20T07:20:57.801Z,6.50
2022-08-20T07:23:26.428Z,6.80
2022-08-20T07:25:53.713Z,7.07
2022-08-20T07:28:23.344Z,7.43
2022-08-20T07:31:13.219Z,7.23
2022-08-20T07:33:41.570Z,6.73
2022-08-20T07:36:09.459Z,6.93
2022-08-20T07:38:36.915Z,7.10
2022-08-20T07:41:09.978Z,6.83
2022-08-20T07:43:36.778Z,6.93
2022-08-20T07:46:08.849Z,6.83
2022-08-20T07:48:40.445Z,6.50
2022-08-20T07:51:09.224Z,6.75
2022-08-20T07:53:37.623Z,5.93
2022-08-20T07:56:08.915Z,5.70
2022-08-20T07:58:36.819Z,6.37
2022-08-20T08:01:05.305Z,6.95
2022-08-20T08:03:39.611Z,6.50
2022-08-20T08:06:17.245Z,5.95
2022-08-20T08:08:57.434Z,7.20
2022-08-20T08:11:24.153Z,6.72
2022-08-20T08:13:51.786Z,6.67
2022-08-20T08:16:20.191Z,6.25
2022-08-20T08:18:51.788Z,6.18
2022-08-20T08:21:19.035Z,6.20
2022-08-20T08:23:45.778Z,6.57
2022-08-20T08:26:16.135Z,6.20
2022-08-20T08:28:46.501Z,5.97
2022-08-20T08:31:14.161Z,6.15
2022-08-20T08:33:41.852Z,5.78
2022-08-20T08:36:11.862Z,5.57
2022-08-20T08:38:40.318Z,6.15
2022-08-20T08:41:31.919Z,6.75
2022-08-20T08:44:27.260Z,6.18
2022-08-20T08:46:58.874Z,6.28
2022-08-20T08:49:37.850Z,5.90
2022-08-20T08:52:31.562Z,5.88
2022-08-20T08:55:00.880Z,5.72
2022-08-20T08:57:27.485Z,5.93
2022-08-20T09:00:04.377Z,6.70
2022-08-20T09:02:33.946Z,5.90
2022-08-20T09:05:02.027Z,5.90
2022-08-20T09:07:31.675Z,6.13
2022-08-20T09:09:58.928Z,5.60
2022-08-20T09:12:27.761Z,5.47
2022-08-20T09:14:54.825Z,6.40
2022-08-20T09:17:22.735Z,6.45
2022-08-20T09:19:50.464Z,6.35
2022-08-20T09:22:20.801Z,5.60
2022-08-20T09:24:47.666Z,6.07
2022-08-20T09:27:14.428Z,5.90
2022-08-20T09:29:41.075Z,5.90
2022-08-20T09:32:13.758Z,5.20
2022-08-20T09:34:45.793Z,5.20
2022-08-20T09:37:13.035Z,5.35
2022-08-20T09:39:39.675Z,5.75
2022-08-20T09:42:10.783Z,5.43
2022-08-20T09:44:37.686Z,6.20
2022-08-20T09:47:04.323Z,6.00
2022-08-20T09:49:31.160Z,6.45
2022-08-20T09:52:00.344Z,6.00
2022-08-20T09:54:30.087Z,5.57
2022-08-20T09:57:02.394Z,6.00
2022-08-20T09:59:30.213Z,6.13
2022-08-20T10:01:58.079Z,5.70
2022-08-20T10:04:24.933Z,5.65
2022-08-20T10:06:51.773Z,5.78
2022-08-20T10:09:18.387Z,5.53
2022-08-20T10:11:44.955Z,6.18
2022-08-20T10:14:11.428Z,6.00
2022-08-20T10:16:37.997Z,5.93
2022-08-20T10:19:05.537Z,5.95
2022-08-20T10:21:36.680Z,5.90
2022-08-20T10:24:05.374Z,5.78
2022-08-20T10:26:31.929Z,6.20
2022-08-20T10:28:58.816Z,6.30
2022-08-20T10:31:25.425Z,5.57
2022-08-20T10:33:52.000Z,5.18
2022-08-20T10:36:18.875Z,4.57
2022-08-20T10:38:45.916Z,5.35
2022-08-20T10:41:12.477Z,5.40
2022-08-20T10:43:39.028Z,5.30
2022-08-20T10:46:05.965Z,4.75
2022-08-20T10:48:32.839Z,4.90
2022-08-20T10:50:59.619Z,4.90
2022-08-20T10:53:26.221Z,5.13
2022-08-20T10:55:54.559Z,4.88
2022-08-20T10:58:23.775Z,4.45
2022-08-20T11:00:51.900Z,5.13
2022-08-20T11:03:18.929Z,4.68
2022-08-20T11:05:46.226Z,4.85
2022-08-20T11:08:12.893Z,4.85
2022-08-20T11:10:39.697Z,5.03
2022-08-20T11:13:07.767Z,4.78
2022-08-20T11:15:37.243Z,4.88
2022-08-20T11:18:04.496Z,5.03
2022-08-20T11:20:32.074Z,5.18
2022-08-20T11:22:59.220Z,5.53
2022-08-20T11:25:26.445Z,4.55
2022-08-20T11:27:55.282Z,5.47
2022-08-20T11:30:28.824Z,4.38
2022-08-20T11:32:56.983Z,5.03
2022-08-20T11:35:42.141Z,4.88
2022-08-20T11:38:12.382Z,5.03
2022-08-20T11:40:39.905Z,4.95
2022-08-20T11:43:15.469Z,4.70
2022-08-20T11:45:45.110Z,4.85
2022-08-20T11:48:11.758Z,5.15
2022-08-20T11:50:38.432Z,4.50
2022-08-20T11:53:05.049Z,4.75
2022-08-20T11:55:32.653Z,4.75
2022-08-20T11:58:00.651Z,4.65
2022-08-20T12:00:32.984Z,5.05
2022-08-20T12:03:05.582Z,4.63
2022-08-20T12:05:35.701Z,4.78
2022-08-20T12:08:02.200Z,5.18
2022-08-20T12:10:30.051Z,5.75
2022-08-20T12:12:57.713Z,5.88
2022-08-20T12:15:25.426Z,5.20
2022-08-20T12:17:52.447Z,5.15
2022-08-20T12:20:20.623Z,5.13
2022-08-20T12:22:47.345Z,5.05
2022-08-20T12:25:14.190Z,5.10
2022-08-20T12:27:42.013Z,4.75
2022-08-20T12:30:12.005Z,5.78
2022-08-20T12:32:39.347Z,5.10
2022-08-20T12:35:07.755Z,5.30
2022-08-20T12:37:35.325Z,4.80
2022-08-20T12:40:04.910Z,4.57
2022-08-20T12:42:32.750Z,4.60
2022-08-20T12:45:00.430Z,4.80
2022-08-20T12:47:29.951Z,5.07
2022-08-20T12:50:01.085Z,4.38
2022-08-20T12:52:29.512Z,4.30
2022-08-20T12:54:57.359Z,4.82
2022-08-20T12:57:35.904Z,4.47
2022-08-20T13:00:10.426Z,4.78
2022-08-20T13:02:38.801Z,4.63
2022-08-20T13:05:07.263Z,4.22
2022-08-20T13:07:34.503Z,4.40
2022-08-20T13:10:01.494Z,4.70
2022-08-20T13:12:28.292Z,4.63
2022-08-20T13:14:55.059Z,4.60
2022-08-20T13:17:38.259Z,4.90
2022-08-20T13:20:11.409Z,4.53
2022-08-20T13:22:38.280Z,4.30
2022-08-20T13:25:06.075Z,5.20
2022-08-20T13:27:32.674Z,4.95
2022-08-20T13:29:59.410Z,5.03
2022-08-20T13:32:26.041Z,5.10
2022-08-20T13:34:52.631Z,4.90
2022-08-20T13:37:25.088Z,4.28
2022-08-20T13:39:52.533Z,4.55
2022-08-20T13:42:19.215Z,5.20
2022-08-20T13:44:45.974Z,4.60
2022-08-20T13:47:26.191Z,4.65
2022-08-20T13:50:17.049Z,5.13
2022-08-20T13:52:44.423Z,5.10
2022-08-20T13:55:14.955Z,4.35
2022-08-20T13:57:41.977Z,4.78
2022-08-20T14:00:13.876Z,4.22
2022-08-20T14:02:42.391Z,4.55
2022-08-20T14:05:10.530Z,4.72
2022-08-20T14:07:38.643Z,4.50
2022-08-20T14:10:18.021Z,4.60
2022-08-20T14:12:46.152Z,4.57
2022-08-20T14:15:12.940Z,4.45
2022-08-20T14:17:49.346Z,3.97
2022-08-20T14:20:18.083Z,4.72
2022-08-20T14:22:45.301Z,5.28
2022-08-20T14:25:14.065Z,4.50
2022-08-20T14:27:41.946Z,5.07
2022-08-20T14:30:12.760Z,4.57
2022-08-20T14:32:42.495Z,5.18
2022-08-20T14:35:12.511Z,4.55
2022-08-20T14:37:42.007Z,4.88
2022-08-20T14:40:11.979Z,4.45
2022-08-20T14:42:39.405Z,4.72
2022-08-20T14:45:08.480Z,4.85
2022-08-20T14:47:38.417Z,5.60
2022-08-20T14:50:10.525Z,5.03
2022-08-20T14:52:41.236Z,5.15
2022-08-20T14:55:14.309Z,4.60
2022-08-20T14:57:41.462Z,5.22
2022-08-20T15:00:13.793Z,4.07
2022-08-20T15:02:43.598Z,4.50
2022-08-20T15:05:10.822Z,4.22
2022-08-20T15:07:41.007Z,4.43
2022-08-20T15:10:13.415Z,4.53
2022-08-20T15:12:40.117Z,4.53
2022-08-20T15:15:15.434Z,4.50
2022-08-20T15:17:45.299Z,4.95
2022-08-20T15:20:20.096Z,4.78
2022-08-20T15:22:47.886Z,4.70
2022-08-20T15:25:17.346Z,5.40
2022-08-20T15:27:44.799Z,4.75
2022-08-20T15:30:15.321Z,4.90
2022-08-20T15:32:42.081Z,4.50
2022-08-20T15:35:11.224Z,4.55
2022-08-20T15:37:46.044Z,4.72
2022-08-20T15:40:16.163Z,4.45
2022-08-20T15:42:43.413Z,4.90
2022-08-20T15:45:21.618Z,4.43
2022-08-20T15:48:01.115Z,4.97
2022-08-20T15:50:34.164Z,5.32
2022-08-20T15:53:18.061Z,5.32
2022-08-20T15:55:57.183Z,4.78
2022-08-20T15:58:36.309Z,4.88
2022-08-20T16:01:25.671Z,4.95
2022-08-20T16:04:04.185Z,4.40
2022-08-20T16:06:32.354Z,4.75
2022-08-20T16:09:20.611Z,4.65
2022-08-20T16:12:13.551Z,4.72
2022-08-20T16:14:45.842Z,4.88
2022-08-20T16:17:16.290Z,5.07
2022-08-20T16:19:50.959Z,5.03
2022-08-20T16:22:19.562Z,5.03
2022-08-20T16:24:46.524Z,4.75
2022-08-20T16:27:40.013Z,5.13
2022-08-20T16:30:09.962Z,5.38
2022-08-20T16:32:42.283Z,5.35
2022-08-20T16:35:42.079Z,4.53
2022-08-20T16:38:23.668Z,5.00
2022-08-20T16:41:18.913Z,4.93
2022-08-20T16:43:53.940Z,5.03
2022-08-20T16:46:22.753Z,4.97
2022-08-20T16:48:57.136Z,5.10
2022-08-20T16:51:32.051Z,5.45
2022-08-20T16:53:58.985Z,4.80
2022-08-20T16:56:38.184Z,5.45
2022-08-20T16:59:07.478Z,4.77
2022-08-20T17:01:34.705Z,4.80
2022-08-20T17:04:01.391Z,5.30
2022-08-20T17:06:37.859Z,5.15
2022-08-20T17:09:11.785Z,5.18
2022-08-20T17:11:38.967Z,4.90
2022-08-20T17:14:17.243Z,5.35
2022-08-20T17:16:51.720Z,5.57
2022-08-20T17:19:29.664Z,4.90
2022-08-20T17:22:09.032Z,5.68
2022-08-20T17:24:37.667Z,5.25
2022-08-20T17:27:10.536Z,5.43
2022-08-20T17:29:52.302Z,5.60
2022-08-20T17:32:25.993Z,4.55
2022-08-20T17:34:56.978Z,4.70
2022-08-20T17:37:29.619Z,4.80
2022-08-20T17:40:25.241Z,4.47
2022-08-20T17:43:01.625Z,5.10
2022-08-20T17:45:36.172Z,5.13
2022-08-20T17:48:05.571Z,4.82
2022-08-20T17:50:35.269Z,4.78
2022-08-20T17:53:23.554Z,4.95
2022-08-20T17:56:03.727Z,5.53
2022-08-20T17:58:54.880Z,5.30
2022-08-20T18:01:25.808Z,5.70
2022-08-20T18:03:53.329Z,4.95
2022-08-20T18:06:31.665Z,5.30
2022-08-20T18:09:39.591Z,5.07
2022-08-20T18:12:27.924Z,4.20
2022-08-20T18:15:10.073Z,4.82
2022-08-20T18:18:22.124Z,3.73
2022-08-20T18:21:22.491Z,4.10
2022-08-20T18:24:27.138Z,4.68
2022-08-20T18:26:59.052Z,4.18
2022-08-20T18:29:39.376Z,4.15
2022-08-20T18:32:07.890Z,4.43
2022-08-20T18:34:41.097Z,4.72
2022-08-20T18:37:25.360Z,4.40
2022-08-20T18:39:52.662Z,4.60
2022-08-20T18:42:26.440Z,4.40
2022-08-20T18:44:57.201Z,4.03
2022-08-20T18:47:27.965Z,4.23
2022-08-20T18:50:16.197Z,4.10
2022-08-20T18:52:49.753Z,4.00
2022-08-20T18:55:43.068Z,3.88
2022-08-20T18:58:12.605Z,4.23
2022-08-20T19:00:58.577Z,3.95
2022-08-20T19:03:35.917Z,3.85
2022-08-20T19:06:12.870Z,4.20
2022-08-20T19:09:04.951Z,3.73
2022-08-20T19:11:42.386Z,3.97
2022-08-20T19:14:18.003Z,3.67
2022-08-20T19:16:48.867Z,3.87
2022-08-20T19:19:20.989Z,3.10
2022-08-20T19:21:48.207Z,4.03
2022-08-20T19:24:24.936Z,3.70
2022-08-20T19:26:57.451Z,4.05
2022-08-20T19:29:31.203Z,4.82
2022-08-20T19:32:02.886Z,3.45
2022-08-20T19:34:31.569Z,3.50
2022-08-20T19:37:10.124Z,3.90
2022-08-20T19:39:50.810Z,3.67
2022-08-20T19:42:22.454Z,3.37
2022-08-20T19:44:53.724Z,3.90
2022-08-20T19:47:31.608Z,3.30
2022-08-20T19:50:18.056Z,3.70
2022-08-20T19:53:03.049Z,3.10
2022-08-20T19:55:35.258Z,3.60
2022-08-20T19:58:05.448Z,3.30
2022-08-20T20:00:44.538Z,3.73
2022-08-20T20:03:23.185Z,3.30
2022-08-20T20:05:54.363Z,3.27
2022-08-20T20:08:22.474Z,3.60
2022-08-20T20:11:00.205Z,3.00
2022-08-20T20:13:29.655Z,3.30
2022-08-20T20:16:01.861Z,3.30
2022-08-20T20:18:35.481Z,3.17
2022-08-20T20:21:23.007Z,3.27
2022-08-20T20:23:55.066Z,2.90
2022-08-20T20:26:21.713Z,3.47
2022-08-20T20:28:53.804Z,2.77
2022-08-20T20:31:46.077Z,3.03
2022-08-20T20:34:13.793Z,3.70
2022-08-20T20:36:45.289Z,3.40
2022-08-20T20:39:33.874Z,3.53
2022-08-20T20:42:02.735Z,3.20
2022-08-20T20:44:37.062Z,3.58
2022-08-20T20:47:06.993Z,3.42
2022-08-20T20:49:57.928Z,3.63
2022-08-20T20:52:33.322Z,3.60
2022-08-20T20:55:05.956Z,3.33
2022-08-20T20:57:37.875Z,3.00
2022-08-20T21:00:20.645Z,2.75
2022-08-20T21:02:47.688Z,3.70
2022-08-20T21:05:16.233Z,4.00
2022-08-20T21:07:54.982Z,3.77
2022-08-20T21:10:24.079Z,3.40
2022-08-20T21:12:53.162Z,3.65
2022-08-20T21:15:21.222Z,3.65
2022-08-20T21:17:47.734Z,3.60
2022-08-20T21:20:14.209Z,3.03
2022-08-20T21:22:40.879Z,3.23
2022-08-20T21:25:07.804Z,3.47
2022-08-20T21:27:34.932Z,3.10
2022-08-20T21:30:03.188Z,3.20
2022-08-20T21:32:29.748Z,3.30
2022-08-20T21:34:57.108Z,3.60
2022-08-20T21:37:23.755Z,3.03
2022-08-20T21:39:50.418Z,3.43
2022-08-20T21:42:29.085Z,3.37
2022-08-20T21:44:58.491Z,3.80
2022-08-20T21:47:25.696Z,3.10
2022-08-20T21:49:52.313Z,3.50
2022-08-20T21:52:19.059Z,3.40
2022-08-20T21:54:45.609Z,3.20
2022-08-20T21:57:20.410Z,3.40
2022-08-20T21:59:47.812Z,3.15
2022-08-20T22:02:16.269Z,3.40
2022-08-20T22:04:43.059Z,3.80
2022-08-20T22:07:10.624Z,3.73
2022-08-20T22:09:38.863Z,3.37
2022-08-20T22:12:17.692Z,2.90
2022-08-20T22:14:44.916Z,3.20
2022-08-20T22:17:12.928Z,3.17
2022-08-20T22:19:39.616Z,3.35
2022-08-20T22:22:06.433Z,3.70
2022-08-20T22:24:32.928Z,3.40
2022-08-20T22:26:59.482Z,3.20
2022-08-20T22:29:26.217Z,3.40
2022-08-20T22:31:52.817Z,3.00
2022-08-20T22:34:19.853Z,3.30
2022-08-20T22:36:47.003Z,3.40
2022-08-20T22:39:13.622Z,3.23
2022-08-20T22:41:40.302Z,3.60
2022-08-20T22:44:06.814Z,3.20
2022-08-20T22:46:36.439Z,3.58
2022-08-20T22:49:04.103Z,3.70
2022-08-20T22:51:34.732Z,4.13
2022-08-20T22:54:03.235Z,3.50
2022-08-20T22:56:30.112Z,3.47
2022-08-20T22:58:59.037Z,3.90
2022-08-20T23:01:26.385Z,3.80
2022-08-20T23:03:53.048Z,3.63
2022-08-20T23:06:20.037Z,3.63
2022-08-20T23:08:46.871Z,3.80
2022-08-20T23:11:13.431Z,3.70
2022-08-20T23:13:39.865Z,3.73
2022-08-20T23:16:06.921Z,3.65
2022-08-20T23:18:33.657Z,3.67
2022-08-20T23:21:00.680Z,3.50
2022-08-20T23:23:27.780Z,4.07
2022-08-20T23:25:54.672Z,4.30
2022-08-20T23:28:22.835Z,3.87
2022-08-20T23:30:49.403Z,3.63
2022-08-20T23:33:16.041Z,3.90
2022-08-20T23:35:43.480Z,3.83
2022-08-20T23:38:10.227Z,4.00
2022-08-20T23:40:38.461Z,3.87
2022-08-20T23:43:05.145Z,4.37
2022-08-20T23:45:32.672Z,3.70
2022-08-20T23:47:59.465Z,3.92
2022-08-20T23:50:28.756Z,4.10
2022-08-20T23:52:56.246Z,4.03
2022-08-20T23:55:23.317Z,4.60
2022-08-20T23:57:50.447Z,4.63
